createdAt,value
2023-01-02T00:01:23.314Z,9.63
2023-01-02T00:03:51.138Z,7.07
2023-01-02T00:06:18.718Z,8.87
2023-01-02T00:08:46.262Z,8.07
2023-01-02T00:11:13.816Z,7.90
2023-01-02T00:13:41.398Z,9.50
2023-01-02T00:16:09.221Z,11.57
2023-01-02T00:18:36.827Z,8.73
2023-01-02T00:21:04.986Z,13.30
2023-01-02T00:23:32.554Z,8.50
2023-01-02T00:26:00.104Z,10.20
2023-01-02T00:28:27.740Z,11.87
2023-01-02T00:30:55.357Z,10.00
2023-01-02T00:33:26.080Z,12.87
2023-01-02T00:35:53.638Z,11.80
2023-01-02T00:38:21.089Z,12.00
2023-01-02T00:40:48.673Z,10.97
2023-01-02T00:43:16.146Z,7.07
2023-01-02T00:45:44.085Z,10.10
2023-01-02T00:48:11.597Z,9.13
2023-01-02T00:50:39.194Z,8.77
2023-01-02T00:53:06.635Z,13.07
2023-01-02T00:55:34.263Z,7.37
2023-01-02T00:58:01.718Z,7.03
2023-01-02T01:00:29.403Z,4.47
2023-01-02T01:02:59.860Z,6.03
2023-01-02T01:05:28.256Z,12.03
2023-01-02T01:07:56.508Z,7.97
2023-01-02T01:10:25.053Z,5.57
2023-01-02T01:12:52.816Z,8.17
2023-01-02T01:15:20.582Z,11.77
2023-01-02T01:17:48.157Z,7.20
2023-01-02T01:20:15.707Z,8.90
2023-01-02T01:22:43.223Z,6.83
2023-01-02T01:25:11.202Z,6.80
2023-01-02T01:27:38.655Z,9.50
2023-01-02T01:30:06.711Z,7.50
2023-01-02T01:32:34.233Z,9.03
2023-01-02T01:35:01.806Z,7.73
2023-01-02T01:37:29.377Z,5.60
2023-01-02T01:39:57.198Z,9.03
2023-01-02T01:42:24.874Z,8.67
2023-01-02T01:44:54.093Z,9.43
2023-01-02T01:47:21.622Z,7.90
2023-01-02T01:49:53.390Z,8.77
2023-01-02T01:52:23.881Z,7.30
2023-01-02T01:54:55.319Z,12.93
2023-01-02T01:57:27.694Z,7.87
2023-01-02T01:59:55.854Z,13.73
2023-01-02T02:02:24.110Z,7.17
2023-01-02T02:04:52.084Z,11.50
2023-01-02T02:07:19.763Z,8.17
2023-01-02T02:09:49.673Z,7.43
2023-01-02T02:12:17.213Z,15.17
2023-01-02T02:14:44.768Z,8.67
2023-01-02T02:17:18.436Z,8.37
2023-01-02T02:20:04.576Z,4.97
2023-01-02T02:22:51.070Z,8.77
2023-01-02T02:25:37.258Z,9.97
2023-01-02T02:28:17.041Z,7.50
2023-01-02T02:30:52.629Z,9.90
2023-01-02T02:33:23.015Z,7.20
2023-01-02T02:36:08.977Z,8.30
2023-01-02T02:38:42.773Z,10.97
2023-01-02T02:41:28.889Z,8.80
2023-01-02T02:44:05.964Z,6.50
2023-01-02T02:46:36.351Z,6.87
2023-01-02T02:49:08.010Z,7.00
2023-01-02T02:52:04.261Z,5.73
2023-01-02T02:55:01.297Z,5.87
2023-01-02T02:57:29.957Z,6.20
2023-01-02T03:00:00.458Z,6.87
2023-01-02T03:02:28.241Z,8.23
2023-01-02T03:04:59.871Z,7.23
2023-01-02T03:07:36.303Z,7.27
2023-01-02T03:10:03.936Z,7.40
2023-01-02T03:12:37.480Z,8.97
2023-01-02T03:15:18.976Z,9.77
2023-01-02T03:17:55.399Z,10.23
2023-01-02T03:20:24.304Z,7.57
2023-01-02T03:22:56.079Z,10.33
2023-01-02T03:25:23.815Z,8.10
2023-01-02T03:27:51.971Z,7.40
2023-01-02T03:30:20.885Z,8.17
2023-01-02T03:32:57.747Z,9.20
2023-01-02T03:35:27.594Z,11.90
2023-01-02T03:37:59.277Z,9.87
2023-01-02T03:40:29.089Z,9.67
2023-01-02T03:43:06.861Z,5.50
2023-01-02T03:45:37.742Z,8.97
2023-01-02T03:48:05.401Z,10.80
2023-01-02T03:51:02.138Z,7.33
2023-01-02T03:53:30.790Z,8.73
2023-01-02T03:56:13.452Z,10.77
2023-01-02T03:58:46.297Z,7.73
2023-01-02T04:01:17.987Z,7.97
2023-01-02T04:03:56.986Z,8.47
2023-01-02T04:06:31.460Z,8.70
2023-01-02T04:09:07.694Z,11.00
2023-01-02T04:11:36.770Z,8.37
2023-01-02T04:14:08.720Z,9.77
2023-01-02T04:16:38.075Z,7.57
2023-01-02T04:19:28.858Z,9.47
2023-01-02T04:21:58.363Z,6.03
2023-01-02T04:24:31.297Z,12.37
2023-01-02T04:27:07.617Z,9.57
2023-01-02T04:29:35.210Z,10.13
2023-01-02T04:32:05.478Z,8.03
2023-01-02T04:34:34.766Z,10.07
2023-01-02T04:37:02.284Z,8.37
2023-01-02T04:39:30.118Z,10.50
2023-01-02T04:41:57.627Z,7.83
2023-01-02T04:44:25.224Z,7.83
2023-01-02T04:46:52.753Z,6.57
2023-01-02T04:49:21.673Z,9.37
2023-01-02T04:51:49.196Z,9.50
2023-01-02T04:54:16.743Z,9.07
2023-01-02T04:56:44.251Z,8.63
2023-01-02T04:59:14.835Z,7.03
2023-01-02T05:01:42.459Z,6.77
2023-01-02T05:04:10.063Z,12.00
2023-01-02T05:06:37.685Z,11.13
2023-01-02T05:09:05.173Z,6.47
2023-01-02T05:11:32.771Z,7.07
2023-01-02T05:14:06.964Z,6.10
2023-01-02T05:16:35.173Z,6.20
2023-01-02T05:19:02.674Z,8.93
2023-01-02T05:21:30.255Z,8.77
2023-01-02T05:23:58.987Z,5.90
2023-01-02T05:26:27.107Z,6.30
2023-01-02T05:28:55.485Z,9.90
2023-01-02T05:31:23.188Z,11.10
2023-01-02T05:33:54.660Z,9.23
2023-01-02T05:36:22.716Z,7.13
2023-01-02T05:38:50.468Z,7.17
2023-01-02T05:41:18.051Z,8.97
2023-01-02T05:43:45.877Z,6.90
2023-01-02T05:46:15.260Z,6.67
2023-01-02T05:48:43.403Z,6.10
2023-01-02T05:51:12.349Z,9.40
2023-01-02T05:53:40.868Z,5.77
2023-01-02T05:56:13.565Z,9.73
2023-01-02T05:58:42.754Z,9.23
2023-01-02T06:01:11.827Z,7.40
2023-01-02T06:03:40.076Z,9.77
2023-01-02T06:06:16.321Z,8.67
2023-01-02T06:08:44.018Z,9.83
2023-01-02T06:11:11.603Z,5.87
2023-01-02T06:13:44.838Z,6.40
2023-01-02T06:16:12.662Z,5.83
2023-01-02T06:18:44.693Z,10.20
2023-01-02T06:21:13.183Z,9.83
2023-01-02T06:23:41.177Z,7.90
2023-01-02T06:26:10.199Z,7.27
2023-01-02T06:28:37.743Z,4.93
2023-01-02T06:31:10.144Z,9.33
2023-01-02T06:33:38.165Z,4.90
2023-01-02T06:36:07.308Z,7.37
2023-01-02T06:38:35.218Z,6.53
2023-01-02T06:41:04.181Z,7.00
2023-01-02T06:43:32.759Z,7.97
2023-01-02T06:46:01.104Z,4.50
2023-01-02T06:48:28.784Z,5.43
2023-01-02T06:50:56.326Z,4.33
2023-01-02T06:53:23.947Z,6.27
2023-01-02T06:55:58.526Z,4.23
2023-01-02T06:58:26.829Z,4.20
2023-01-02T07:00:54.451Z,6.03
2023-01-02T07:03:22.044Z,10.17
2023-01-02T07:05:49.708Z,3.87
2023-01-02T07:08:17.345Z,9.77
2023-01-02T07:10:49.458Z,7.33
2023-01-02T07:13:20.408Z,5.93
2023-01-02T07:15:48.600Z,5.17
2023-01-02T07:18:17.536Z,4.80
2023-01-02T07:20:45.085Z,3.40
2023-01-02T07:23:13.019Z,9.87
2023-01-02T07:25:44.382Z,4.53
2023-01-02T07:28:12.472Z,6.47
2023-01-02T07:30:40.248Z,8.90
2023-01-02T07:33:08.041Z,6.90
2023-01-02T07:35:35.640Z,4.03
2023-01-02T07:38:03.248Z,7.07
2023-01-02T07:40:34.361Z,4.23
2023-01-02T07:43:01.983Z,5.70
2023-01-02T07:45:29.561Z,6.17
2023-01-02T07:47:59.977Z,4.33
2023-01-02T07:50:30.319Z,4.90
2023-01-02T07:52:57.976Z,3.03
2023-01-02T07:55:25.600Z,4.53
2023-01-02T07:57:53.164Z,5.23
2023-01-02T08:00:21.207Z,5.93
2023-01-02T08:02:48.731Z,5.43
2023-01-02T08:05:17.030Z,7.20
2023-01-02T08:07:45.270Z,6.30
2023-01-02T08:10:13.185Z,4.17
2023-01-02T08:12:41.056Z,4.47
2023-01-02T08:15:08.816Z,4.73
2023-01-02T08:17:36.420Z,5.30
2023-01-02T08:20:07.990Z,6.97
2023-01-02T08:22:36.141Z,7.13
2023-01-02T08:25:06.886Z,5.10
2023-01-02T08:27:34.677Z,5.43
2023-01-02T08:30:05.334Z,6.17
2023-01-02T08:32:36.099Z,9.73
2023-01-02T08:35:04.072Z,6.70
2023-01-02T08:37:34.814Z,6.13
2023-01-02T08:40:02.528Z,3.13
2023-01-02T08:42:30.162Z,1.87
2023-01-02T08:44:57.765Z,1.40
2023-01-02T08:47:27.653Z,1.17
2023-01-02T08:49:55.417Z,0.73
2023-01-02T08:52:23.014Z,2.77
2023-01-02T08:54:50.759Z,2.30
2023-01-02T08:57:18.382Z,1.80
2023-01-02T08:59:46.981Z,2.30
2023-01-02T09:02:15.370Z,2.27
2023-01-02T09:04:43.591Z,1.83
2023-01-02T09:07:11.173Z,2.23
2023-01-02T09:09:38.875Z,1.33
2023-01-02T09:12:06.824Z,1.97
2023-01-02T09:14:34.845Z,2.63
2023-01-02T09:17:02.473Z,1.97
2023-01-02T09:19:30.548Z,2.50
2023-01-02T09:21:58.151Z,3.23
2023-01-02T09:24:29.029Z,2.10
2023-01-02T09:26:56.747Z,2.40
2023-01-02T09:29:24.372Z,2.90
2023-01-02T09:31:52.031Z,2.60
2023-01-02T09:34:19.623Z,2.73
2023-01-02T09:36:47.338Z,2.83
2023-01-02T09:39:14.884Z,2.83
2023-01-02T09:41:53.157Z,3.50
2023-01-02T09:44:39.252Z,3.33
2023-01-02T09:47:26.476Z,3.83
2023-01-02T09:50:09.559Z,4.13
2023-01-02T09:52:45.138Z,4.07
2023-01-02T09:55:35.929Z,4.63
2023-01-02T09:58:16.943Z,4.43
2023-01-02T10:00:47.406Z,4.10
2023-01-02T10:03:25.123Z,6.00
2023-01-02T10:06:06.550Z,4.77
2023-01-02T10:08:34.156Z,4.40
2023-01-02T10:11:01.636Z,5.57
2023-01-02T10:14:17.288Z,6.03
2023-01-02T10:16:34.649Z,6.13
2023-01-02T10:19:04.206Z,5.40
2023-01-02T10:21:34.569Z,6.30
2023-01-02T10:24:07.539Z,7.77
2023-01-02T10:26:36.463Z,8.73
2023-01-02T10:29:13.173Z,6.90
2023-01-02T10:31:40.916Z,8.83
2023-01-02T10:34:13.419Z,7.03
2023-01-02T10:36:42.141Z,7.50
2023-01-02T10:39:13.714Z,8.00
2023-01-02T10:41:41.924Z,6.67
2023-01-02T10:44:13.287Z,6.03
2023-01-02T10:46:42.026Z,6.67
2023-01-02T10:49:10.703Z,6.53
2023-01-02T10:51:43.008Z,8.13
2023-01-02T10:54:10.710Z,6.83
2023-01-02T10:56:42.115Z,9.17
2023-01-02T10:59:19.643Z,6.30
2023-01-02T11:01:51.463Z,6.07
2023-01-02T11:04:25.232Z,5.63
2023-01-02T11:06:52.878Z,4.57
2023-01-02T11:09:22.404Z,4.50
2023-01-02T11:11:51.297Z,5.47
2023-01-02T11:14:22.610Z,4.57
2023-01-02T11:16:50.789Z,4.70
2023-01-02T11:19:29.179Z,8.10
2023-01-02T11:21:59.192Z,5.17
2023-01-02T11:24:26.931Z,6.50
2023-01-02T11:26:55.090Z,5.17
2023-01-02T11:29:28.767Z,6.47
2023-01-02T11:31:58.550Z,5.73
2023-01-02T11:34:31.064Z,5.73
2023-01-02T11:37:05.438Z,5.47
2023-01-02T11:39:35.318Z,5.80
2023-01-02T11:42:10.893Z,6.87
2023-01-02T11:44:46.080Z,6.20
2023-01-02T11:47:14.504Z,6.10
2023-01-02T11:49:49.380Z,5.87
2023-01-02T11:52:20.454Z,8.57
2023-01-02T11:55:20.671Z,6.70
2023-01-02T11:57:55.146Z,7.90
2023-01-02T12:00:25.574Z,8.17
2023-01-02T12:02:53.948Z,8.80
2023-01-02T12:05:36.914Z,6.77
2023-01-02T12:08:14.286Z,6.90
2023-01-02T12:10:54.865Z,7.50
2023-01-02T12:13:41.763Z,7.13
2023-01-02T12:16:18.469Z,7.20
2023-01-02T12:18:46.150Z,7.30
2023-01-02T12:21:16.607Z,8.13
2023-01-02T12:24:03.231Z,6.93
2023-01-02T12:26:35.459Z,8.17
2023-01-02T12:29:13.800Z,7.80
2023-01-02T12:32:07.940Z,7.50
2023-01-02T12:34:35.656Z,8.23
2023-01-02T12:37:12.319Z,7.20
2023-01-02T12:39:46.435Z,8.13
2023-01-02T12:42:32.369Z,8.80
2023-01-02T12:45:00.638Z,7.70
2023-01-02T12:47:37.136Z,8.43
2023-01-02T12:50:04.773Z,7.00
2023-01-02T12:53:01.665Z,7.30
2023-01-02T12:55:29.348Z,7.50
2023-01-02T12:58:00.104Z,9.20
2023-01-02T13:00:46.537Z,8.70
2023-01-02T13:03:38.279Z,8.70
2023-01-02T13:06:43.341Z,7.87
2023-01-02T13:09:00.915Z,8.20
2023-01-02T13:11:32.894Z,7.53
2023-01-02T13:14:02.670Z,6.90
2023-01-02T13:16:30.620Z,8.13
2023-01-02T13:19:16.523Z,8.97
2023-01-02T13:21:55.790Z,9.07
2023-01-02T13:24:24.793Z,6.73
2023-01-02T13:26:54.020Z,8.13
2023-01-02T13:29:26.554Z,7.67
2023-01-02T13:31:54.771Z,8.37
2023-01-02T13:34:30.135Z,7.53
2023-01-02T13:37:11.141Z,9.17
2023-01-02T13:39:41.777Z,8.77
2023-01-02T13:42:11.516Z,10.00
2023-01-02T13:44:41.149Z,7.47
2023-01-02T13:47:10.921Z,9.13
2023-01-02T13:49:41.546Z,6.63
2023-01-02T13:52:16.507Z,8.00
2023-01-02T13:55:04.463Z,7.37
2023-01-02T13:57:32.801Z,7.53
2023-01-02T14:00:02.331Z,6.27
2023-01-02T14:02:33.308Z,8.90
2023-01-02T14:05:23.703Z,6.83
2023-01-02T14:07:51.279Z,8.90
2023-01-02T14:10:32.544Z,7.50
2023-01-02T14:13:08.406Z,9.10
2023-01-02T14:15:41.788Z,9.83
2023-01-02T14:18:10.343Z,8.30
2023-01-02T14:20:38.633Z,9.50
2023-01-02T14:23:10.694Z,8.00
2023-01-02T14:25:49.373Z,9.33
2023-01-02T14:28:27.743Z,9.67
2023-01-02T14:30:55.967Z,9.40
2023-01-02T14:33:30.126Z,8.97
2023-01-02T14:35:59.083Z,6.90
2023-01-02T14:38:28.466Z,8.27
2023-01-02T14:40:55.992Z,7.30
2023-01-02T14:43:23.477Z,6.60
2023-01-02T14:45:52.809Z,6.80
2023-01-02T14:48:28.643Z,6.57
2023-01-02T14:51:00.238Z,5.80
2023-01-02T14:53:33.110Z,6.50
2023-01-02T14:56:04.500Z,6.17
2023-01-02T14:58:40.914Z,6.03
2023-01-02T15:01:09.128Z,5.20
2023-01-02T15:03:51.989Z,9.80
2023-01-02T15:06:25.842Z,5.77
2023-01-02T15:08:54.483Z,7.07
2023-01-02T15:11:23.500Z,7.37
2023-01-02T15:14:04.380Z,5.67
2023-01-02T15:16:45.574Z,4.53
2023-01-02T15:19:21.057Z,6.57
2023-01-02T15:21:48.717Z,4.97
2023-01-02T15:24:21.235Z,5.90
2023-01-02T15:26:48.880Z,7.97
2023-01-02T15:29:27.464Z,7.20
2023-01-02T15:31:59.719Z,6.90
2023-01-02T15:34:28.541Z,5.70
2023-01-02T15:36:56.523Z,5.47
2023-01-02T15:39:44.363Z,5.90
2023-01-02T15:42:16.914Z,5.80
2023-01-02T15:44:45.873Z,5.93
2023-01-02T15:47:17.571Z,6.37
2023-01-02T15:49:48.637Z,5.87
2023-01-02T15:52:21.202Z,8.83
2023-01-02T15:54:49.521Z,6.47
2023-01-02T15:57:18.347Z,5.10
2023-01-02T15:59:46.722Z,5.30
2023-01-02T16:02:36.106Z,9.20
2023-01-02T16:05:21.724Z,8.60
2023-01-02T16:07:50.462Z,5.93
2023-01-02T16:10:21.700Z,6.67
2023-01-02T16:13:02.889Z,5.70
2023-01-02T16:15:35.019Z,8.73
2023-01-02T16:18:03.325Z,6.20
2023-01-02T16:20:31.100Z,6.53
2023-01-02T16:23:00.866Z,4.50
2023-01-02T16:25:29.629Z,4.80
2023-01-02T16:28:35.383Z,6.50
2023-01-02T16:31:15.093Z,4.37
2023-01-02T16:33:43.436Z,4.97
2023-01-02T16:36:11.338Z,3.77
2023-01-02T16:38:46.170Z,4.63
2023-01-02T16:41:29.413Z,1.97
2023-01-02T16:43:57.096Z,2.73
2023-01-02T16:46:24.799Z,3.20
2023-01-02T16:48:52.614Z,2.07
2023-01-02T16:51:20.311Z,1.23
2023-01-02T16:53:47.966Z,1.97
2023-01-02T16:56:16.971Z,1.30
2023-01-02T16:58:44.564Z,3.20
2023-01-02T17:01:13.739Z,1.10
2023-01-02T17:03:41.848Z,1.57
2023-01-02T17:06:14.134Z,0.80
2023-01-02T17:08:44.501Z,2.07
2023-01-02T17:11:16.181Z,3.07
2023-01-02T17:13:43.823Z,3.00
2023-01-02T17:16:11.591Z,2.40
2023-01-02T17:18:39.388Z,2.90
2023-01-02T17:21:10.088Z,3.40
2023-01-02T17:23:38.147Z,1.90
2023-01-02T17:26:06.209Z,1.93
2023-01-02T17:28:34.315Z,1.60
2023-01-02T17:31:01.866Z,1.83
2023-01-02T17:33:29.538Z,2.83
2023-01-02T17:35:57.096Z,4.30
2023-01-02T17:38:24.714Z,1.47
2023-01-02T17:40:56.663Z,4.40
2023-01-02T17:43:24.228Z,1.80
2023-01-02T17:45:51.819Z,2.23
2023-01-02T17:48:24.309Z,1.67
2023-01-02T17:50:53.335Z,3.20
2023-01-02T17:53:20.961Z,2.47
2023-01-02T17:56:21.158Z,3.13
2023-01-02T17:58:46.224Z,2.03
2023-01-02T18:01:15.211Z,3.00
2023-01-02T18:03:42.992Z,3.53
2023-01-02T18:06:10.793Z,3.90
2023-01-02T18:08:38.752Z,2.60
2023-01-02T18:11:07.777Z,4.00
2023-01-02T18:13:39.047Z,6.93
2023-01-02T18:16:11.801Z,3.03
2023-01-02T18:18:39.467Z,6.17
2023-01-02T18:21:11.230Z,9.83
2023-01-02T18:23:39.221Z,5.33
2023-01-02T18:26:14.112Z,4.53
2023-01-02T18:28:45.271Z,5.30
2023-01-02T18:31:15.459Z,3.70
2023-01-02T18:33:44.952Z,4.77
2023-01-02T18:36:23.234Z,3.97
2023-01-02T18:38:54.899Z,4.13
2023-01-02T18:41:27.268Z,7.73
2023-01-02T18:44:02.015Z,5.20
2023-01-02T18:47:01.920Z,6.57
2023-01-02T18:49:29.014Z,4.13
2023-01-02T18:52:17.047Z,4.87
2023-01-02T18:54:46.327Z,4.80
2023-01-02T18:57:16.805Z,5.20
2023-01-02T18:59:46.450Z,4.60
2023-01-02T19:02:34.410Z,6.80
2023-01-02T19:05:02.105Z,4.87
2023-01-02T19:07:30.788Z,7.10
2023-01-02T19:10:16.315Z,4.83
2023-01-02T19:12:47.113Z,4.37
2023-01-02T19:15:33.421Z,5.00
2023-01-02T19:18:21.292Z,4.17
2023-01-02T19:20:53.422Z,6.77
2023-01-02T19:23:34.608Z,6.30
2023-01-02T19:26:13.515Z,5.63
2023-01-02T19:28:46.695Z,5.57
2023-01-02T19:31:16.308Z,8.20
2023-01-02T19:33:46.257Z,6.27
2023-01-02T19:36:18.062Z,8.07
2023-01-02T19:38:46.316Z,4.17
2023-01-02T19:41:13.937Z,5.27
2023-01-02T19:43:41.557Z,8.80
2023-01-02T19:46:09.288Z,5.53
2023-01-02T19:48:37.003Z,6.17
2023-01-02T19:51:04.714Z,4.97
2023-01-02T19:53:35.316Z,9.20
2023-01-02T19:56:03.458Z,5.20
2023-01-02T19:58:31.326Z,7.37
2023-01-02T20:00:59.019Z,9.50
2023-01-02T20:03:26.895Z,9.07
2023-01-02T20:05:57.767Z,9.63
2023-01-02T20:08:25.712Z,12.80
2023-01-02T20:10:53.385Z,8.70
2023-01-02T20:13:21.023Z,8.30
2023-01-02T20:15:48.683Z,9.70
2023-01-02T20:18:18.808Z,11.03
2023-01-02T20:20:46.545Z,9.50
2023-01-02T20:23:15.926Z,8.47
2023-01-02T20:25:46.744Z,10.73
2023-01-02T20:28:14.547Z,12.10
2023-01-02T20:30:42.280Z,10.50
2023-01-02T20:33:09.955Z,8.30
2023-01-02T20:35:37.653Z,10.47
2023-01-02T20:38:05.192Z,9.27
2023-01-02T20:40:32.835Z,11.00
2023-01-02T20:43:00.495Z,11.83
2023-01-02T20:45:28.045Z,11.33
2023-01-02T20:47:55.698Z,9.47
2023-01-02T20:50:23.249Z,10.50
2023-01-02T20:52:56.957Z,9.13
2023-01-02T20:55:25.004Z,10.03
2023-01-02T20:57:53.436Z,10.53
2023-01-02T21:00:21.437Z,11.83
2023-01-02T21:02:49.210Z,10.83
2023-01-02T21:05:17.486Z,10.83
2023-01-02T21:07:45.482Z,12.17
2023-01-02T21:10:13.178Z,9.90
2023-01-02T21:12:40.820Z,12.10
2023-01-02T21:15:08.680Z,12.97
2023-01-02T21:17:37.693Z,11.03
2023-01-02T21:20:05.480Z,10.70
2023-01-02T21:22:33.034Z,12.47
2023-01-02T21:25:00.648Z,12.83
2023-01-02T21:27:28.347Z,12.93
2023-01-02T21:29:55.909Z,11.40
2023-01-02T21:32:23.484Z,12.37
2023-01-02T21:34:51.076Z,14.70
2023-01-02T21:37:18.656Z,13.63
2023-01-02T21:39:46.278Z,14.07
2023-01-02T21:42:13.832Z,12.77
2023-01-02T21:44:41.414Z,13.90
2023-01-02T21:47:09.048Z,11.67
2023-01-02T21:49:38.861Z,13.30
2023-01-02T21:52:06.774Z,13.67
2023-01-02T21:54:34.441Z,12.77
2023-01-02T21:57:02.078Z,14.67
2023-01-02T21:59:29.649Z,13.27
2023-01-02T22:01:57.759Z,16.93
2023-01-02T22:04:27.560Z,14.07
2023-01-02T22:09:43.059Z,13.23
2023-01-02T22:12:10.734Z,11.87
2023-01-02T22:14:38.966Z,21.73
2023-01-02T22:17:08.191Z,16.00
2023-01-02T22:19:36.406Z,18.57
2023-01-02T22:22:05.432Z,14.20
2023-01-02T22:24:36.565Z,13.00
2023-01-02T22:27:07.601Z,19.07
2023-01-02T22:30:09.692Z,18.07
2023-01-02T22:32:27.382Z,14.67
2023-01-02T22:34:55.274Z,16.53
2023-01-02T22:37:23.177Z,15.33
2023-01-02T22:39:50.956Z,16.93
2023-01-02T22:42:57.761Z,13.47
2023-01-02T22:45:07.913Z,16.10
2023-01-02T22:47:36.676Z,16.23
2023-01-02T22:50:10.093Z,12.70
2023-01-02T22:52:39.534Z,10.07
2023-01-02T22:55:14.495Z,14.37
2023-01-02T22:57:44.693Z,13.37
2023-01-02T23:00:17.388Z,13.60
2023-01-02T23:02:44.942Z,9.13
2023-01-02T23:05:16.465Z,8.93
2023-01-02T23:07:44.715Z,10.57
2023-01-02T23:10:12.931Z,11.90
2023-01-02T23:12:40.651Z,15.60
2023-01-02T23:15:09.631Z,14.97
2023-01-02T23:17:40.605Z,10.33
2023-01-02T23:20:08.440Z,12.67
2023-01-02T23:22:35.979Z,13.87
2023-01-02T23:25:03.569Z,13.10
2023-01-02T23:27:31.100Z,12.10
2023-01-02T23:29:58.681Z,11.33
2023-01-02T23:32:26.149Z,12.93
2023-01-02T23:34:53.739Z,10.07
2023-01-02T23:37:21.308Z,12.93
2023-01-02T23:39:48.899Z,10.33
2023-01-02T23:42:16.395Z,9.97
2023-01-02T23:44:43.926Z,10.03
2023-01-02T23:47:17.140Z,11.03
2023-01-02T23:49:46.466Z,11.63
2023-01-02T23:52:14.089Z,14.03
2023-01-02T23:54:41.722Z,9.07
2023-01-02T23:57:09.239Z,9.00
2023-01-02T23:59:36.873Z,8.07
